Time;durP1;ratioP1;P1;durP2;ratioP2;P2;SDS_P1;SDS_P2;PMS_P1;PMS_P2;Temp;Humidity;BMP_temperature;BMP_pressure;BME280_temperature;BME280_humidity;BME280_pressure;Samples;Min_cycle;Max_cycle;Signal;HPM_P1;HPM_P2
2020/12/02 00:01:39;;;;;;;25.23;20.97;;;;;;;-1.54;100.00;98235.88;4956283;28;20225;-69
2020/12/02 00:04:10;;;;;;;24.93;20.20;;;;;;;-1.43;100.00;98230.97;4970222;28;20308;-71
2020/12/02 00:06:38;;;;;;;22.27;18.83;;;;;;;-1.44;100.00;98224.09;4931360;28;20433;-70
2020/12/02 00:09:08;;;;;;;23.23;20.10;;;;;;;-1.56;100.00;98222.97;4963312;28;20538;-71
2020/12/02 00:11:35;;;;;;;23.90;19.80;;;;;;;-1.40;100.00;98227.34;4957567;28;20206;-70
2020/12/02 00:14:07;;;;;;;23.43;18.47;;;;;;;-1.35;100.00;98227.94;4967097;28;20451;-71
2020/12/02 00:16:34;;;;;;;22.77;19.73;;;;;;;-1.44;100.00;98225.81;4955423;28;20454;-71
2020/12/02 00:19:02;;;;;;;26.40;21.53;;;;;;;-1.47;100.00;98219.06;4970898;28;20745;-71
2020/12/02 00:21:32;;;;;;;22.00;18.80;;;;;;;-1.48;100.00;98215.59;4937654;28;20217;-71
2020/12/02 00:24:00;;;;;;;28.77;19.07;;;;;;;-1.41;100.00;98220.47;4960032;28;20456;-71
2020/12/02 00:26:28;;;;;;;22.47;18.47;;;;;;;-1.49;100.00;98218.28;4953057;28;20717;-71
2020/12/02 00:28:56;;;;;;;23.77;19.27;;;;;;;-1.50;100.00;98222.66;4963311;28;20202;-70
2020/12/02 00:31:26;;;;;;;23.87;19.33;;;;;;;-1.59;100.00;98230.94;4957472;28;20205;-70
2020/12/02 00:33:53;;;;;;;23.63;19.70;;;;;;;-1.49;100.00;98221.72;4966834;28;20598;-70
2020/12/02 00:36:20;;;;;;;25.80;19.97;;;;;;;-1.34;100.00;98227.00;4937861;28;20456;-71
2020/12/02 00:38:47;;;;;;;27.93;21.80;;;;;;;-1.48;100.00;98220.78;4968898;28;20233;-70
2020/12/02 00:41:14;;;;;;;25.33;20.33;;;;;;;-1.40;100.00;98228.19;4969286;28;20629;-71
2020/12/02 00:43:41;;;;;;;23.50;20.03;;;;;;;-1.41;100.00;98229.13;4961112;28;20245;-69
2020/12/02 00:46:09;;;;;;;24.20;20.77;;;;;;;-1.43;100.00;98219.72;4969298;28;20682;-71
2020/12/02 00:48:38;;;;;;;20.63;18.27;;;;;;;-1.46;100.00;98223.31;4959023;28;20240;-70
2020/12/02 00:51:06;;;;;;;22.90;19.87;;;;;;;-1.49;100.00;98224.31;4970983;28;20201;-71
2020/12/02 00:53:35;;;;;;;24.00;19.00;;;;;;;-1.46;100.00;98223.31;4934285;28;20843;-71
2020/12/02 00:56:03;;;;;;;24.00;19.40;;;;;;;-1.52;100.00;98215.84;4970555;28;20335;-71
2020/12/02 00:58:41;;;;;;;24.43;19.40;;;;;;;-1.52;100.00;98219.28;4956271;28;20477;-71
2020/12/02 01:01:11;;;;;;;24.83;19.40;;;;;;;-1.49;100.00;98219.13;4971977;28;20538;-71
2020/12/02 01:03:40;;;;;;;24.13;18.97;;;;;;;-1.52;100.00;98214.09;4952616;28;20222;-70
2020/12/02 01:06:11;;;;;;;21.90;18.93;;;;;;;-1.42;100.00;98210.97;4970416;28;20657;-70
2020/12/02 01:08:40;;;;;;;24.23;18.17;;;;;;;-1.44;100.00;98210.22;4931624;28;20217;-70
2020/12/02 01:11:12;;;;;;;23.30;19.73;;;;;;;-1.51;100.00;98210.56;4969545;28;20395;-69
2020/12/02 01:13:40;;;;;;;20.90;18.47;;;;;;;-1.41;100.00;98212.66;4962760;28;20218;-70
2020/12/02 01:16:08;;;;;;;22.43;18.17;;;;;;;-1.48;100.00;98210.41;4970572;28;20205;-70
2020/12/02 01:18:35;;;;;;;23.07;18.33;;;;;;;-1.55;100.00;98214.25;4949902;28;20873;-71
2020/12/02 01:21:13;;;;;;;22.70;18.90;;;;;;;-1.60;100.00;98214.50;4967874;28;20449;-71
2020/12/02 01:23:40;;;;;;;23.90;19.43;;;;;;;-1.66;100.00;98214.81;4934907;28;20213;-71
2020/12/02 01:26:09;;;;;;;23.83;18.93;;;;;;;-1.51;100.00;98215.75;4966142;28;20214;-70
2020/12/02 01:28:37;;;;;;;22.73;19.23;;;;;;;-1.49;100.00;98216.53;4958450;28;20770;-71
2020/12/02 01:31:05;;;;;;;23.60;19.33;;;;;;;-1.55;100.00;98210.81;4970946;28;20201;-71
2020/12/02 01:33:33;;;;;;;24.03;18.63;;;;;;;-1.60;100.00;98206.69;4971793;28;20202;-71
2020/12/02 01:36:00;;;;;;;25.37;19.50;;;;;;;-1.58;100.00;98205.78;4958863;28;20237;-71
2020/12/02 01:38:31;;;;;;;24.77;19.00;;;;;;;-1.57;100.00;98208.31;4927195;28;20493;-70
2020/12/02 01:40:59;;;;;;;22.80;19.30;;;;;;;-1.65;100.00;98202.69;4964035;28;20206;-71
2020/12/02 01:43:26;;;;;;;24.90;19.93;;;;;;;-1.67;100.00;98199.31;4959199;28;20698;-70
2020/12/02 01:45:56;;;;;;;22.20;18.37;;;;;;;-1.61;100.00;98201.59;4962068;28;20233;-71
2020/12/02 01:49:01;;;;;;;27.23;20.07;;;;;;;-1.65;100.00;98197.50;4964836;28;20463;-69
2020/12/02 01:51:48;;;;;;;24.10;18.63;;;;;;;-1.66;100.00;98195.81;4957681;28;20268;-70
2020/12/02 01:54:20;;;;;;;24.67;19.67;;;;;;;-1.59;100.00;98199.75;4932659;28;20230;-69
2020/12/02 01:56:51;;;;;;;27.30;21.33;;;;;;;-1.60;100.00;98203.28;4967908;28;20447;-70
2020/12/02 01:59:24;;;;;;;21.13;18.87;;;;;;;-1.59;100.00;98202.34;4958417;28;20497;-69
2020/12/02 02:01:57;;;;;;;26.47;19.47;;;;;;;-1.62;100.00;98197.31;4966370;28;20214;-71
2020/12/02 02:04:29;;;;;;;26.97;20.53;;;;;;;-1.57;100.00;98197.06;4971942;28;20236;-69
2020/12/02 02:07:07;;;;;;;22.27;19.33;;;;;;;-1.58;100.00;98203.16;4954144;28;20465;-71
2020/12/02 02:09:35;;;;;;;25.23;21.17;;;;;;;-1.61;100.00;98196.41;4930877;28;20457;-71
2020/12/02 02:12:27;;;;;;;26.97;19.73;;;;;;;-1.25;100.00;98200.53;4971700;28;20213;-71
2020/12/02 02:15:08;;;;;;;23.67;19.03;;;;;;;-1.16;100.00;98206.94;4955675;28;20601;-71
2020/12/02 02:17:35;;;;;;;24.47;19.43;;;;;;;-1.27;100.00;98212.78;4967320;28;20509;-71
2020/12/02 02:20:02;;;;;;;26.00;20.03;;;;;;;-1.39;100.00;98209.06;4971268;28;20665;-71
2020/12/02 02:22:30;;;;;;;25.60;19.57;;;;;;;-1.34;100.00;98207.06;4954509;28;20536;-71
2020/12/02 02:24:57;;;;;;;22.63;18.57;;;;;;;-1.28;100.00;98208.50;4926739;28;20233;-70
2020/12/02 02:27:26;;;;;;;24.47;19.50;;;;;;;-1.31;100.00;98221.66;4964302;28;20260;-69
2020/12/02 02:29:54;;;;;;;24.53;18.17;;;;;;;-1.33;100.00;98208.72;4957826;28;20202;-71
2020/12/02 02:32:23;;;;;;;23.47;19.77;;;;;;;-1.31;100.00;98206.06;4963052;28;20229;-69
2020/12/02 02:34:52;;;;;;;24.23;19.00;;;;;;;-1.29;100.00;98213.75;4972678;28;20237;-71
2020/12/02 02:37:21;;;;;;;24.43;19.50;;;;;;;-1.28;100.00;98220.63;4957580;28;20214;-70
2020/12/02 02:39:48;;;;;;;31.00;21.87;;;;;;;-1.20;100.00;98211.50;4926785;28;20228;-71
2020/12/02 02:42:30;;;;;;;30.47;21.53;;;;;;;-1.29;100.00;98212.00;4962982;28;20205;-69
2020/12/02 02:44:58;;;;;;;30.60;22.07;;;;;;;-1.26;100.00;98214.44;4953512;28;20629;-70
2020/12/02 02:47:25;;;;;;;32.63;23.60;;;;;;;-1.28;100.00;98215.44;4966783;28;20566;-69
2020/12/02 02:49:52;;;;;;;33.37;22.00;;;;;;;-1.28;100.00;98216.28;4973273;28;20335;-70
2020/12/02 02:52:19;;;;;;;27.97;22.13;;;;;;;-1.32;100.00;98215.59;4949492;28;20699;-69
2020/12/02 02:54:46;;;;;;;31.70;23.53;;;;;;;-1.10;100.00;98221.41;4926923;28;21044;-71
2020/12/02 02:57:14;;;;;;;28.97;22.17;;;;;;;-1.20;100.00;98218.44;4966581;28;20229;-69
2020/12/02 02:59:42;;;;;;;33.53;23.10;;;;;;;-1.25;100.00;98220.47;4967796;28;20497;-70
2020/12/02 03:02:12;;;;;;;32.67;21.03;;;;;;;-1.35;100.00;98222.72;4950058;28;20213;-70
2020/12/02 03:04:39;;;;;;;33.23;22.87;;;;;;;-1.41;100.00;98210.91;4967010;28;21068;-71
2020/12/02 03:07:11;;;;;;;34.13;23.83;;;;;;;-1.42;100.00;98213.59;4952625;28;20214;-69
2020/12/02 03:09:38;;;;;;;34.27;23.00;;;;;;;-1.41;100.00;98210.06;4930398;28;20461;-71
2020/12/02 03:12:06;;;;;;;32.33;23.67;;;;;;;-1.48;100.00;98219.97;4962010;28;20210;-69
2020/12/02 03:14:33;;;;;;;33.13;23.93;;;;;;;-1.41;100.00;98215.25;4967669;28;20482;-71
2020/12/02 03:17:01;;;;;;;35.30;22.50;;;;;;;-1.42;100.00;98217.03;4957158;28;20602;-69
2020/12/02 03:19:31;;;;;;;31.03;24.20;;;;;;;-1.41;100.00;98212.66;4961077;28;20233;-71
2020/12/02 03:22:03;;;;;;;32.97;22.30;;;;;;;-1.35;100.00;98220.97;4963055;28;20207;-69
2020/12/02 03:24:30;;;;;;;31.80;23.37;;;;;;;-1.28;100.00;98213.69;4954529;28;20464;-71
2020/12/02 03:26:57;;;;;;;31.67;23.20;;;;;;;-1.18;100.00;98219.22;4923880;28;20694;-70
2020/12/02 03:29:24;;;;;;;30.90;22.97;;;;;;;-1.22;100.00;98215.09;4962100;28;20453;-72
2020/12/02 03:31:51;;;;;;;31.07;23.73;;;;;;;-1.22;100.00;98210.75;4945501;28;20209;-70
2020/12/02 03:34:20;;;;;;;32.40;23.43;;;;;;;-1.17;100.00;98206.13;4958740;28;20481;-71
2020/12/02 03:36:48;;;;;;;30.60;24.37;;;;;;;-1.38;100.00;98212.50;4963589;28;20210;-70
2020/12/02 03:39:16;;;;;;;29.57;22.57;;;;;;;-1.24;100.00;98207.41;4951101;28;20344;-69
2020/12/02 03:41:43;;;;;;;29.93;23.77;;;;;;;-1.06;100.00;98205.53;4930097;28;20886;-68
2020/12/02 03:44:10;;;;;;;33.50;22.50;;;;;;;-1.03;100.00;98200.16;4950172;28;20941;-71
2020/12/02 03:46:38;;;;;;;31.63;23.23;;;;;;;-1.18;100.00;98201.84;4968471;28;20444;-70
2020/12/02 03:49:05;;;;;;;28.97;21.80;;;;;;;-0.99;100.00;98203.41;4939502;28;20251;-71
2020/12/02 03:51:34;;;;;;;32.33;21.63;;;;;;;-1.01;100.00;98200.06;4968341;28;20209;-70
2020/12/02 03:54:01;;;;;;;28.63;20.67;;;;;;;-1.11;100.00;98206.72;4963764;28;20287;-70
2020/12/02 03:56:28;;;;;;;32.77;22.23;;;;;;;-1.22;100.00;98208.16;4930245;28;20223;-71
2020/12/02 03:58:55;;;;;;;31.73;22.73;;;;;;;-1.25;100.00;98200.53;4959639;28;20499;-69
2020/12/02 04:01:23;;;;;;;29.63;21.40;;;;;;;-1.27;100.00;98204.13;4966848;28;20210;-71
2020/12/02 04:03:50;;;;;;;28.07;21.63;;;;;;;-1.09;100.00;98197.06;4949358;28;20464;-69
2020/12/02 04:06:17;;;;;;;26.93;20.50;;;;;;;-1.00;100.00;98196.53;4959386;28;20236;-70
2020/12/02 04:08:46;;;;;;;28.30;20.47;;;;;;;-1.08;100.00;98189.19;4973500;28;20213;-70
2020/12/02 04:11:14;;;;;;;27.43;21.03;;;;;;;-1.12;100.00;98192.03;4970489;28;20723;-72
2020/12/02 04:13:41;;;;;;;29.50;21.33;;;;;;;-1.23;100.00;98200.41;4931649;28;20480;-70
2020/12/02 04:16:08;;;;;;;31.77;20.80;;;;;;;-1.04;100.00;98189.84;4966086;28;20457;-70
2020/12/02 04:18:35;;;;;;;33.70;22.17;;;;;;;-1.05;100.00;98195.97;4962770;28;20456;-71
2020/12/02 04:21:03;;;;;;;29.50;21.63;;;;;;;-1.19;100.00;98194.13;4950207;28;20569;-71
2020/12/02 04:23:30;;;;;;;31.00;21.50;;;;;;;-1.17;100.00;98197.47;4974617;28;21031;-71
2020/12/02 04:25:58;;;;;;;26.93;20.33;;;;;;;-1.33;100.00;98192.28;4969784;28;20484;-70
2020/12/02 04:28:25;;;;;;;28.63;22.00;;;;;;;-1.28;100.00;98190.28;4937121;28;20222;-71
2020/12/02 04:30:52;;;;;;;30.57;22.07;;;;;;;-1.31;100.00;98188.69;4964574;28;20453;-69
2020/12/02 04:33:19;;;;;;;32.17;22.47;;;;;;;-1.40;100.00;98189.19;4932775;28;20444;-70
2020/12/02 04:35:46;;;;;;;32.10;22.30;;;;;;;-1.35;100.00;98184.56;4940863;28;20461;-69
2020/12/02 04:38:13;;;;;;;32.40;23.00;;;;;;;-1.31;100.00;98185.25;4951649;28;23358;-70
2020/12/02 04:40:42;;;;;;;33.47;23.63;;;;;;;-1.40;100.00;98188.34;4967617;28;20495;-69
2020/12/02 04:43:14;;;;;;;33.07;25.03;;;;;;;-1.38;100.00;98184.75;4970997;28;20622;-73
2020/12/02 04:45:42;;;;;;;44.77;30.53;;;;;;;-1.43;100.00;98184.16;4931503;28;20995;-71
2020/12/02 04:48:12;;;;;;;98.63;60.67;;;;;;;-1.41;100.00;98182.31;4971333;28;20429;-73
2020/12/02 04:50:39;;;;;;;141.53;84.10;;;;;;;-1.49;100.00;98182.72;4958859;28;20214;-72
2020/12/02 04:53:12;;;;;;;88.17;54.07;;;;;;;-1.40;100.00;98175.34;4965205;28;20498;-72
2020/12/02 04:55:40;;;;;;;152.27;96.20;;;;;;;-1.33;100.00;98171.47;4955124;28;20296;-71
2020/12/02 04:58:19;;;;;;;96.67;65.03;;;;;;;-1.37;100.00;98165.63;4967359;28;20698;-73
2020/12/02 05:00:46;;;;;;;74.10;59.07;;;;;;;-1.33;100.00;98161.06;4931131;28;20424;-72
2020/12/02 05:03:15;;;;;;;53.70;44.30;;;;;;;-1.33;100.00;98161.94;4971723;28;20210;-72
2020/12/02 05:05:42;;;;;;;34.53;30.67;;;;;;;-1.31;100.00;98167.06;4966373;28;20465;-72
2020/12/02 05:08:23;;;;;;;30.07;23.10;;;;;;;-1.22;100.00;98163.09;4958541;28;20225;-72
2020/12/02 05:10:51;;;;;;;27.97;23.30;;;;;;;-1.32;100.00;98160.19;4969223;28;20209;-72
2020/12/02 05:13:19;;;;;;;29.60;21.87;;;;;;;-1.22;100.00;98163.09;4969316;28;20857;-72
2020/12/02 05:15:46;;;;;;;30.77;21.23;;;;;;;-1.32;100.00;98162.78;4930182;28;20609;-72
2020/12/02 05:18:23;;;;;;;30.87;21.77;;;;;;;-1.27;100.00;98159.91;4970835;28;20415;-67
2020/12/02 05:21:19;;;;;;;30.07;21.97;;;;;;;-1.12;100.00;98164.28;4958050;28;20454;-66
2020/12/02 05:24:01;;;;;;;31.73;22.67;;;;;;;-1.20;100.00;98150.84;4969571;28;20213;-66
2020/12/02 05:26:30;;;;;;;27.50;20.87;;;;;;;-1.31;100.00;98154.06;4974833;28;20686;-67
2020/12/02 05:28:58;;;;;;;29.90;21.30;;;;;;;-1.26;100.00;98156.38;4966280;28;20441;-67
2020/12/02 05:31:27;;;;;;;31.80;21.80;;;;;;;-1.26;100.00;98156.38;4932302;28;20221;-67
2020/12/02 05:34:06;;;;;;;27.33;20.63;;;;;;;-1.09;100.00;98158.91;4967193;28;20461;-71
2020/12/02 05:36:36;;;;;;;29.70;20.73;;;;;;;-1.23;100.00;98154.47;4967428;28;20445;-72
2020/12/02 05:39:06;;;;;;;26.57;19.30;;;;;;;-1.07;100.00;98158.78;4952866;28;20341;-72
2020/12/02 05:41:34;;;;;;;26.80;21.17;;;;;;;-0.99;100.00;98159.19;4967256;28;20214;-72
2020/12/02 05:44:05;;;;;;;31.20;21.17;;;;;;;-0.90;100.00;98158.69;4965410;28;20706;-72
2020/12/02 05:46:36;;;;;;;27.53;21.30;;;;;;;-0.92;100.00;98157.94;4931483;28;20228;-72
2020/12/02 05:49:07;;;;;;;27.13;20.87;;;;;;;-1.02;100.00;98160.22;4961886;28;20370;-72
2020/12/02 05:51:34;;;;;;;27.50;21.50;;;;;;;-1.01;100.00;98158.44;4968661;28;20733;-72
2020/12/02 05:54:05;;;;;;;25.63;20.17;;;;;;;-1.19;100.00;98155.97;4954833;28;20341;-72
2020/12/02 05:56:32;;;;;;;27.37;21.77;;;;;;;-1.18;100.00;98162.00;4967278;28;20354;-72
2020/12/02 05:59:01;;;;;;;26.80;21.43;;;;;;;-1.20;100.00;98153.44;4964736;28;20510;-72
2020/12/02 06:01:29;;;;;;;29.23;21.17;;;;;;;-1.04;100.00;98158.63;4966547;28;20611;-72
2020/12/02 06:03:57;;;;;;;27.33;19.87;;;;;;;-1.14;100.00;98160.06;4929951;28;21918;-71
2020/12/02 06:06:26;;;;;;;27.77;22.13;;;;;;;-1.23;100.00;98162.25;4967205;28;20205;-72
2020/12/02 06:08:53;;;;;;;27.87;20.13;;;;;;;-1.26;100.00;98161.59;4953279;28;20221;-71
2020/12/02 06:11:33;;;;;;;28.90;21.13;;;;;;;-1.29;100.00;98162.59;4968714;28;20594;-72
2020/12/02 06:14:04;;;;;;;26.47;20.97;;;;;;;-1.32;100.00;98149.78;4964829;28;20452;-72
2020/12/02 06:16:38;;;;;;;30.63;22.60;;;;;;;-1.29;100.00;98156.56;4965161;28;20202;-71
2020/12/02 06:19:14;;;;;;;26.33;21.03;;;;;;;-1.31;100.00;98154.06;4930280;28;20225;-72
2020/12/02 06:21:43;;;;;;;26.07;20.30;;;;;;;-1.36;100.00;98151.69;4962718;28;20335;-72
2020/12/02 06:24:12;;;;;;;32.97;22.03;;;;;;;-1.34;100.00;98156.81;4956354;28;20229;-72
2020/12/02 06:26:43;;;;;;;27.03;20.47;;;;;;;-1.21;100.00;98151.75;4969048;28;20618;-72
2020/12/02 06:29:33;;;;;;;27.00;21.03;;;;;;;-1.13;100.00;98144.38;4966010;28;20681;-73
2020/12/02 06:32:11;;;;;;;27.90;20.10;;;;;;;-1.13;100.00;98152.19;4964281;28;20446;-72
2020/12/02 06:34:38;;;;;;;25.63;18.43;;;;;;;-1.20;100.00;98153.44;4908246;28;21037;-73
2020/12/02 06:37:12;;;;;;;24.20;19.23;;;;;;;-1.26;100.00;98146.84;4972514;28;20696;-72
2020/12/02 06:39:41;;;;;;;24.93;19.40;;;;;;;-1.10;100.00;98146.81;4952363;28;20959;-72
2020/12/02 06:42:29;;;;;;;26.43;20.07;;;;;;;-1.04;100.00;98153.41;4969448;28;20445;-71
2020/12/02 06:45:12;;;;;;;25.47;18.80;;;;;;;-0.99;100.00;98148.78;4966463;28;20921;-72
2020/12/02 06:47:59;;;;;;;25.50;19.13;;;;;;;-0.91;100.00;98148.34;4965567;28;20740;-72
2020/12/02 06:50:30;;;;;;;27.57;19.63;;;;;;;-0.73;100.00;98146.47;4930991;28;20453;-71
2020/12/02 06:53:09;;;;;;;28.47;20.83;;;;;;;-0.90;100.00;98148.28;4968946;28;20448;-72
2020/12/02 06:55:36;;;;;;;28.60;20.63;;;;;;;-0.97;100.00;98146.94;4960826;28;20493;-71
2020/12/02 06:58:04;;;;;;;26.20;21.07;;;;;;;-1.07;100.00;98148.38;4970607;28;20448;-72
2020/12/02 07:00:39;;;;;;;26.47;21.10;;;;;;;-1.11;100.00;98145.13;4969007;28;20422;-73
2020/12/02 07:03:18;;;;;;;27.53;20.10;;;;;;;-1.31;100.00;98149.69;4966607;28;20457;-70
2020/12/02 07:05:45;;;;;;;26.63;19.80;;;;;;;-1.32;100.00;98142.81;4953735;28;20478;-72
2020/12/02 07:08:19;;;;;;;33.70;22.80;;;;;;;-1.27;100.00;98144.31;4964962;28;20448;-71
2020/12/02 07:11:13;;;;;;;30.33;21.83;;;;;;;-1.45;100.00;98141.81;4951354;28;20480;-71
2020/12/02 07:13:43;;;;;;;28.47;21.17;;;;;;;-1.37;100.00;98149.16;4948387;28;20708;-72
2020/12/02 07:16:22;;;;;;;30.60;23.23;;;;;;;-1.39;100.00;98153.63;4965973;28;20217;-70
2020/12/02 07:18:56;;;;;;;28.40;20.90;;;;;;;-1.35;100.00;98162.94;4929326;28;20717;-72
2020/12/02 07:21:27;;;;;;;30.37;23.23;;;;;;;-1.39;100.00;98158.81;4959571;28;20485;-71
2020/12/02 07:23:55;;;;;;;28.70;21.30;;;;;;;-1.51;100.00;98161.19;4967146;28;21441;-72
2020/12/02 07:26:22;;;;;;;26.00;19.93;;;;;;;-1.38;100.00;98153.56;4954836;28;20445;-71
2020/12/02 07:28:57;;;;;;;31.97;20.93;;;;;;;-1.33;100.00;98161.94;4970996;28;20221;-71
2020/12/02 07:31:25;;;;;;;30.53;21.10;;;;;;;-1.36;100.00;98164.69;4969820;28;21059;-71
2020/12/02 07:34:13;;;;;;;29.47;21.00;;;;;;;-1.50;100.00;98162.84;4965246;28;20673;-72
2020/12/02 07:36:40;;;;;;;30.17;20.83;;;;;;;-1.43;100.00;98165.97;4951133;28;20777;-72
2020/12/02 07:39:12;;;;;;;32.53;22.73;;;;;;;-1.46;100.00;98163.53;4967743;28;20448;-72
2020/12/02 07:41:51;;;;;;;31.17;22.07;;;;;;;-1.46;100.00;98163.53;4958269;28;20214;-72
2020/12/02 07:44:19;;;;;;;29.07;21.70;;;;;;;-1.41;100.00;98168.47;4968224;28;20477;-71
2020/12/02 07:46:46;;;;;;;30.63;22.10;;;;;;;-1.39;100.00;98164.03;4971715;28;20584;-72
2020/12/02 07:49:16;;;;;;;32.97;21.10;;;;;;;-1.54;100.00;98168.28;4972907;28;20528;-70
2020/12/02 07:51:47;;;;;;;31.40;21.37;;;;;;;-1.55;100.00;98177.00;4937956;28;20483;-72
2020/12/02 07:54:20;;;;;;;27.80;21.07;;;;;;;-1.55;100.00;98167.47;4966464;28;20538;-72
2020/12/02 07:56:48;;;;;;;31.53;20.30;;;;;;;-1.52;100.00;98179.44;4954497;28;20460;-72
2020/12/02 07:59:17;;;;;;;33.00;21.10;;;;;;;-1.63;100.00;98177.44;4969791;28;20215;-70
2020/12/02 08:02:04;;;;;;;31.47;21.47;;;;;;;-1.62;100.00;98172.16;4974221;28;20967;-72
2020/12/02 08:04:37;;;;;;;33.50;22.33;;;;;;;-1.62;100.00;98173.94;4956303;28;20986;-72
2020/12/02 08:07:06;;;;;;;30.37;19.13;;;;;;;-1.79;100.00;98175.66;4935816;28;20990;-72
2020/12/02 08:09:40;;;;;;;33.43;20.80;;;;;;;-1.77;100.00;98171.22;4966832;28;20718;-72
2020/12/02 08:12:10;;;;;;;31.30;19.60;;;;;;;-1.81;100.00;98172.31;4974330;28;20454;-72
2020/12/02 08:14:40;;;;;;;32.40;21.63;;;;;;;-1.70;100.00;98176.94;4963167;28;20732;-72
2020/12/02 08:17:17;;;;;;;32.23;19.70;;;;;;;-1.70;100.00;98173.50;4970320;28;20452;-72
2020/12/02 08:19:46;;;;;;;32.33;20.97;;;;;;;-1.73;100.00;98171.03;4972056;28;20483;-72
2020/12/02 08:22:25;;;;;;;32.23;21.20;;;;;;;-1.91;100.00;98174.53;4933438;28;20965;-70
2020/12/02 08:25:04;;;;;;;27.53;19.57;;;;;;;-1.82;100.00;98172.41;4965874;28;20475;-72
2020/12/02 08:27:31;;;;;;;33.33;21.20;;;;;;;-1.69;100.00;98176.00;4965315;28;21012;-71
2020/12/02 08:30:09;;;;;;;32.20;20.33;;;;;;;-1.72;100.00;98173.56;4954726;28;20461;-71
2020/12/02 08:32:41;;;;;;;28.40;19.80;;;;;;;-1.79;100.00;98167.84;4967098;28;20448;-72
2020/12/02 08:35:25;;;;;;;28.77;18.93;;;;;;;-1.81;100.00;98174.91;4973883;28;20476;-70
2020/12/02 08:37:53;;;;;;;28.70;18.20;;;;;;;-1.79;100.00;98174.81;4928057;28;20228;-71
2020/12/02 08:40:36;;;;;;;29.33;19.80;;;;;;;-1.71;100.00;98171.81;4967157;28;20536;-71
2020/12/02 08:43:28;;;;;;;25.07;17.17;;;;;;;-1.75;100.00;98168.53;4971593;28;20459;-71
2020/12/02 08:46:17;;;;;;;27.63;18.80;;;;;;;-1.69;100.00;98170.81;4964135;28;20491;-71
2020/12/02 08:48:47;;;;;;;25.40;17.57;;;;;;;-1.84;100.00;98161.25;4970261;28;20441;-72
2020/12/02 08:51:17;;;;;;;27.63;18.07;;;;;;;-1.84;100.00;98171.66;4967134;28;20795;-71
2020/12/02 08:53:47;;;;;;;27.23;18.00;;;;;;;-1.68;100.00;98166.47;4938158;28;21173;-71
2020/12/02 08:56:27;;;;;;;27.93;18.83;;;;;;;-1.70;100.00;98156.13;4964570;28;20902;-71
2020/12/02 08:58:54;;;;;;;27.80;18.97;;;;;;;-1.54;100.00;98163.09;4951832;28;20950;-72
2020/12/02 09:01:21;;;;;;;27.67;17.50;;;;;;;-1.66;100.00;98155.06;4972182;28;20894;-71
2020/12/02 09:03:48;;;;;;;25.20;17.30;;;;;;;-1.66;100.00;98164.63;4972508;28;20838;-70
2020/12/02 09:06:18;;;;;;;23.47;16.50;;;;;;;-1.80;100.00;98160.97;4968560;28;20453;-72
2020/12/02 09:08:46;;;;;;;25.60;16.43;;;;;;;-1.82;100.00;98155.03;4926522;28;20492;-71
2020/12/02 09:11:16;;;;;;;22.97;16.77;;;;;;;-1.86;100.00;98152.69;4965485;28;20582;-72
2020/12/02 09:13:47;;;;;;;23.40;16.23;;;;;;;-1.90;100.00;98152.00;4949994;28;20468;-72
2020/12/02 09:16:21;;;;;;;25.77;15.83;;;;;;;-1.85;100.00;98156.97;4972585;28;20449;-71
2020/12/02 09:18:48;;;;;;;24.93;17.23;;;;;;;-1.78;100.00;98156.53;4965804;28;20456;-71
2020/12/02 09:21:15;;;;;;;21.37;15.90;;;;;;;-1.95;100.00;98148.81;4970926;28;20784;-71
2020/12/02 09:23:42;;;;;;;23.47;15.83;;;;;;;-1.93;100.00;98141.78;4932568;28;20830;-72
2020/12/02 09:26:09;;;;;;;21.63;15.57;;;;;;;-1.92;100.00;98138.28;4968436;28;20444;-71
2020/12/02 09:28:36;;;;;;;23.47;16.13;;;;;;;-1.91;100.00;98145.13;4971472;28;20479;-71
2020/12/02 09:31:04;;;;;;;20.60;15.77;;;;;;;-1.85;100.00;98139.63;4958142;28;20452;-72
2020/12/02 09:33:31;;;;;;;22.30;14.40;;;;;;;-1.85;100.00;98139.63;4964752;28;20465;-72
2020/12/02 09:35:58;;;;;;;20.07;15.07;;;;;;;-1.97;100.00;98124.69;4973262;28;20464;-73
2020/12/02 09:38:25;;;;;;;21.60;15.03;;;;;;;-2.00;100.00;98128.28;4928116;28;20630;-71
2020/12/02 09:40:52;;;;;;;21.40;13.90;;;;;;;-1.85;100.00;98120.59;4965146;28;20492;-73
2020/12/02 09:43:34;;;;;;;22.80;14.90;;;;;;;-1.76;99.98;98118.31;4972133;28;20456;-73
2020/12/02 09:46:07;;;;;;;22.77;14.03;;;;;;;-1.80;99.93;98126.38;4950181;28;20473;-70
2020/12/02 09:48:34;;;;;;;21.53;14.43;;;;;;;-1.74;98.92;98115.66;4966169;28;20446;-71
2020/12/02 09:51:10;;;;;;;22.07;14.53;;;;;;;-1.78;99.26;98116.75;4974629;28;20441;-71
2020/12/02 09:53:37;;;;;;;20.43;15.57;;;;;;;-1.67;97.89;98105.78;4936979;28;20845;-71
2020/12/02 09:56:05;;;;;;;18.23;13.00;;;;;;;-1.68;98.00;98109.28;4963036;28;20467;-71
2020/12/02 09:58:32;;;;;;;19.00;13.83;;;;;;;-1.64;96.55;98105.59;4965471;28;20453;-72
2020/12/02 10:01:03;;;;;;;20.10;14.20;;;;;;;-1.69;97.94;98097.22;4959462;28;21152;-72
2020/12/02 10:03:54;;;;;;;21.77;14.80;;;;;;;-1.70;97.37;98092.94;4966069;28;20559;-71
2020/12/02 10:06:39;;;;;;;24.87;15.70;;;;;;;-1.80;97.45;98085.63;4968643;28;20629;-70
2020/12/02 10:09:18;;;;;;;22.03;15.27;;;;;;;-1.80;97.18;98087.41;4931986;28;20226;-70
2020/12/02 10:11:51;;;;;;;23.27;15.50;;;;;;;-1.79;96.44;98074.31;4966807;28;20244;-71
2020/12/02 10:14:34;;;;;;;23.20;15.20;;;;;;;-1.76;98.42;98068.13;4965476;28;20725;-71
2020/12/02 10:17:07;;;;;;;23.03;16.27;;;;;;;-1.80;97.01;98062.25;4953087;28;20224;-72
2020/12/02 10:20:06;;;;;;;23.53;15.23;;;;;;;-1.84;95.82;98057.34;4962762;28;20202;-72
2020/12/02 10:22:45;;;;;;;24.77;16.60;;;;;;;-1.65;96.17;98044.16;4962117;28;20691;-72
2020/12/02 10:25:22;;;;;;;22.27;16.47;;;;;;;-1.55;96.65;98047.06;4930697;28;20245;-71
2020/12/02 10:28:01;;;;;;;19.53;14.43;;;;;;;-1.30;96.62;98051.72;4971608;28;20228;-72
2020/12/02 10:30:30;;;;;;;23.17;14.97;;;;;;;-1.24;95.66;98034.91;4955294;28;20710;-71
2020/12/02 10:33:23;;;;;;;24.63;15.37;;;;;;;-1.39;95.46;98028.81;4963891;28;20202;-72
2020/12/02 10:35:52;;;;;;;24.77;15.47;;;;;;;-1.36;95.36;98033.84;4968674;28;20255;-72
2020/12/02 10:38:28;;;;;;;26.87;16.70;;;;;;;-1.31;94.53;98024.03;4964476;28;20802;-71
2020/12/02 10:41:01;;;;;;;27.47;17.93;;;;;;;-1.39;91.85;98021.88;4926459;28;21033;-72
2020/12/02 10:43:33;;;;;;;22.97;16.17;;;;;;;-1.25;90.72;98022.84;4960499;28;20794;-71
2020/12/02 10:46:02;;;;;;;21.43;15.13;;;;;;;-1.58;92.24;98024.69;4970186;28;20226;-72
2020/12/02 10:48:43;;;;;;;25.13;17.67;;;;;;;-1.47;90.49;98026.69;4956407;28;20205;-72
2020/12/02 10:51:13;;;;;;;22.00;15.90;;;;;;;-1.41;89.93;98028.94;4966182;28;20457;-71
2020/12/02 10:53:42;;;;;;;20.17;16.10;;;;;;;-1.45;91.38;98027.44;4968019;28;20634;-72
2020/12/02 10:56:10;;;;;;;27.40;17.30;;;;;;;-1.52;92.58;98026.94;4926918;28;20456;-71
2020/12/02 10:58:37;;;;;;;24.03;16.90;;;;;;;-1.65;92.79;98025.97;4964463;28;20640;-71
2020/12/02 11:01:07;;;;;;;24.93;15.97;;;;;;;-1.74;94.18;98019.50;4973474;28;20620;-72
2020/12/02 11:03:35;;;;;;;24.50;17.53;;;;;;;-1.58;92.98;98022.09;4953339;28;21009;-72
2020/12/02 11:06:13;;;;;;;25.50;17.67;;;;;;;-1.68;93.99;98015.75;4968618;28;20483;-72
2020/12/02 11:08:53;;;;;;;23.20;17.57;;;;;;;-1.52;92.84;98005.28;4968245;28;20460;-72
2020/12/02 11:11:32;;;;;;;25.67;17.97;;;;;;;-1.57;92.15;98012.50;4930537;28;20216;-71
2020/12/02 11:14:08;;;;;;;26.63;17.43;;;;;;;-1.54;92.92;98013.19;4962456;28;20464;-71
2020/12/02 11:16:42;;;;;;;23.43;17.77;;;;;;;-1.58;93.12;98016.88;4966170;28;20206;-71
2020/12/02 11:19:30;;;;;;;24.23;17.67;;;;;;;-1.45;92.63;97996.25;4950286;28;20225;-70
2020/12/02 11:22:06;;;;;;;22.80;17.53;;;;;;;-1.41;92.34;97995.13;4966002;28;21020;-71
2020/12/02 11:24:45;;;;;;;27.20;18.87;;;;;;;-1.41;93.50;97991.69;4964478;28;20722;-71
2020/12/02 11:27:13;;;;;;;25.30;18.33;;;;;;;-1.37;93.60;97978.44;4925030;28;20458;-71
2020/12/02 11:29:40;;;;;;;25.53;17.57;;;;;;;-1.36;93.24;97974.06;4964589;28;20715;-72